Time;durP1;ratioP1;P1;durP2;ratioP2;P2;SDS_P1;SDS_P2;PMS_P1;PMS_P2;Temp;Humidity;BMP_temperature;BMP_pressure;BME280_temperature;BME280_humidity;BME280_pressure;Samples;Min_cycle;Max_cycle;Signal;HPM_P1;HPM_P2
2023/07/28 00:01:29;;;;;;;;;;;;;;;17.22;54.64;99832.45;105092;1291;68536;-89
2023/07/28 00:04:27;;;;;;;;;;;;;;;17.18;54.84;99827.29;97805;1291;10016353;-88
2023/07/28 00:07:36;;;;;;;;;;;;;;;17.18;54.94;99827.27;105505;1291;62034;-88
2023/07/28 00:10:49;;;;;;;;;;;;;;;17.18;54.85;99825.91;105142;1291;74172;-88
2023/07/28 00:14:15;;;;;;;;;;;;;;;17.18;55.02;99819.97;105153;1292;67925;-89
2023/07/28 00:17:42;;;;;;;;;;;;;;;17.19;55.09;99822.90;105184;1290;71242;-88
2023/07/28 00:20:49;;;;;;;;;;;;;;;17.19;55.25;99814.36;105122;1292;62080;-88
2023/07/28 00:24:15;;;;;;;;;;;;;;;17.18;55.39;99813.02;105145;1291;61982;-88
2023/07/28 00:27:46;;;;;;;;;;;;;;;17.18;55.33;99814.20;105147;1291;74399;-88
2023/07/28 00:30:50;;;;;;;;;;;;;;;17.20;55.46;99806.45;105149;1292;67313;-88
2023/07/28 00:33:56;;;;;;;;;;;;;;;17.19;55.33;99799.37;105037;1294;74084;-89
2023/07/28 00:37:25;;;;;;;;;;;;;;;17.18;55.55;99796.48;105146;1292;62394;-89
2023/07/28 00:40:51;;;;;;;;;;;;;;;17.15;55.74;99796.66;105092;1291;60077;-89
2023/07/28 00:44:16;;;;;;;;;;;;;;;17.15;55.80;99784.44;105118;1291;76124;-89
2023/07/28 00:47:33;;;;;;;;;;;;;;;17.17;55.60;99781.05;104983;1293;67476;-89
2023/07/28 00:50:57;;;;;;;;;;;;;;;17.16;55.84;99776.70;104931;1297;74361;-88
2023/07/28 00:54:25;;;;;;;;;;;;;;;17.17;55.94;99775.27;104980;1295;62047;-88
2023/07/28 00:58:01;;;;;;;;;;;;;;;;;;;;;
2023/07/28 01:01:27;;;;;;;;;;;;;;;;;;;;;
2023/07/28 01:04:43;;;;;;;;;;;;;;;17.18;56.14;99757.98;104419;1300;67212;-89
2023/07/28 01:07:50;;;;;;;;;;;;;;;17.17;56.30;99752.66;104376;1300;72421;-88
2023/07/28 01:10:56;;;;;;;;;;;;;;;17.17;56.34;99747.41;104403;1299;62190;-88
2023/07/28 01:14:25;;;;;;;;;;;;;;;17.17;56.40;99744.45;104592;1297;61801;-89
2023/07/28 01:17:51;;;;;;;;;;;;;;;17.15;56.43;99733.95;104564;1297;75185;-89
2023/07/28 01:21:02;;;;;;;;;;;;;;;17.12;56.40;99726.47;104625;1298;67173;-89
2023/07/28 01:24:23;;;;;;;;;;;;;;;17.11;56.48;99721.63;104565;1297;71436;-89
2023/07/28 01:27:30;;;;;;;;;;;;;;;17.13;56.56;99718.74;104166;1303;62046;-89
2023/07/28 01:30:37;;;;;;;;;;;;;;;17.14;56.84;99719.41;104253;1302;62049;-88
2023/07/28 01:33:53;;;;;;;;;;;;;;;17.12;56.67;99716.77;104238;1302;73027;-88
2023/07/28 01:37:05;;;;;;;;;;;;;;;17.09;56.88;99712.92;104345;1302;67421;-88
2023/07/28 01:40:30;;;;;;;;;;;;;;;17.08;56.76;99707.05;104196;1303;72808;-88
2023/07/28 01:43:37;;;;;;;;;;;;;;;17.03;56.92;99702.64;104400;1299;62060;-89
2023/07/28 01:47:03;;;;;;;;;;;;;;;17.03;57.05;99698.77;104355;1299;60380;-88
2023/07/28 01:50:10;;;;;;;;;;;;;;;17.01;57.00;99693.84;104383;1301;75340;-89
2023/07/28 01:53:20;;;;;;;;;;;;;;;17.00;57.30;99690.46;104455;1300;67222;-88
2023/07/28 01:56:20;;;;;;;;;;;;;;;16.98;57.26;99691.09;104372;1300;71251;-87
2023/07/28 01:59:28;;;;;;;;;;;;;;;16.99;57.52;99691.38;104431;1301;60121;-88
2023/07/28 02:02:54;;;;;;;;;;;;;;;16.99;57.46;99680.58;104434;1300;60213;-88
2023/07/28 02:06:01;;;;;;;;;;;;;;;17.01;57.38;99681.98;104923;1292;73986;-87
2023/07/28 02:09:29;;;;;;;;;;;;;;;17.00;57.43;99679.45;104901;1292;67214;-87
2023/07/28 02:12:36;;;;;;;;;;;;;;;16.99;57.45;99675.35;105125;1291;71286;-88
2023/07/28 02:16:02;;;;;;;;;;;;;;;16.99;57.64;99668.56;105216;1290;62056;-88
2023/07/28 02:19:12;;;;;;;;;;;;;;;16.98;57.77;99666.85;105181;1292;62153;-88
2023/07/28 02:22:38;;;;;;;;;;;;;;;16.99;57.88;99665.91;105186;1292;75888;-88
2023/07/28 02:25:46;;;;;;;;;;;;;;;17.00;57.86;99663.79;105203;1294;68626;-88
2023/07/28 02:28:56;;;;;;;;;;;;;;;17.00;58.04;99667.46;105172;1294;72618;-88
2023/07/28 02:32:22;;;;;;;;;;;;;;;17.02;57.93;99668.73;105123;1291;60232;-88
2023/07/28 02:35:32;;;;;;;;;;;;;;;17.03;58.22;99674.05;105153;1292;61920;-87
2023/07/28 02:38:19;;;;;;;;;;;;;;;17.01;58.20;99662.15;105297;1294;75450;-88
2023/07/28 02:41:25;;;;;;;;;;;;;;;17.01;58.21;99646.30;105014;1294;67000;-88
2023/07/28 02:44:51;;;;;;;;;;;;;;;17.03;58.16;99656.15;105175;1292;72226;-88
2023/07/28 02:47:37;;;;;;;;;;;;;;;17.01;58.36;99663.73;105196;1294;60006;-87
2023/07/28 02:50:25;;;;;;;;;;;;;;;17.03;58.51;99662.94;105108;1290;61890;-88
2023/07/28 02:53:32;;;;;;;;;;;;;;;17.03;58.56;99658.89;105127;1291;74092;-88
2023/07/28 02:56:39;;;;;;;;;;;;;;;17.04;58.74;99652.27;105018;1289;67953;-88
2023/07/28 03:00:05;;;;;;;;;;;;;;;17.06;58.75;99643.21;105112;1294;71838;-88
2023/07/28 03:03:34;;;;;;;;;;;;;;;17.08;58.78;99646.05;105135;1295;61875;-89
2023/07/28 03:06:59;;;;;;;;;;;;;;;17.10;58.85;99647.39;105122;1291;62006;-88
2023/07/28 03:10:05;;;;;;;;;;;;;;;17.11;59.02;99646.63;105027;1295;74161;-88
2023/07/28 03:13:13;;;;;;;;;;;;;;;17.10;59.00;99646.67;105217;1295;67382;-89
2023/07/28 03:16:39;;;;;;;;;;;;;;;17.09;59.17;99658.39;105120;1293;71883;-88
2023/07/28 03:19:55;;;;;;;;;;;;;;;17.11;58.96;99655.15;105126;1296;62113;-89
2023/07/28 03:23:15;;;;;;;;;;;;;;;17.12;59.31;99655.10;105135;1290;62177;-89
2023/07/28 03:26:38;;;;;;;;;;;;;;;17.11;59.37;99654.10;105166;1295;76617;-89
2023/07/28 03:30:06;;;;;;;;;;;;;;;17.12;59.46;99655.08;105155;1295;66212;-89
2023/07/28 03:33:12;;;;;;;;;;;;;;;17.13;59.51;99651.33;105091;1293;71806;-89
2023/07/28 03:36:22;;;;;;;;;;;;;;;17.15;59.61;99647.23;105124;1292;62012;-89
2023/07/28 03:39:51;;;;;;;;;;;;;;;17.16;59.64;99643.52;105208;1291;59611;-89
2023/07/28 03:43:19;;;;;;;;;;;;;;;17.17;59.66;99638.00;105168;1292;73949;-89
2023/07/28 03:46:50;;;;;;;;;;;;;;;17.17;59.79;99632.45;104723;1300;70127;-88
2023/07/28 03:50:14;;;;;;;;;;;;;;;17.15;59.83;99621.27;104688;1299;71194;-88
2023/07/28 03:53:42;;;;;;;;;;;;;;;17.15;59.97;99613.26;104406;1299;250851;-88
2023/07/28 03:57:05;;;;;;;;;;;;;;;17.15;60.06;99603.55;104846;1305;60806;-88
2023/07/28 04:00:32;;;;;;;;;;;;;;;17.14;60.15;99599.42;104738;1299;73983;-88
2023/07/28 04:04:08;;;;;;;;;;;;;;;;;;;;;
2023/07/28 04:07:30;;;;;;;;;;;;;;;17.18;60.33;99601.20;103271;1315;75296;-88
2023/07/28 04:10:59;;;;;;;;;;;;;;;17.21;60.30;99596.52;103109;1315;62434;-88
2023/07/28 04:14:22;;;;;;;;;;;;;;;17.23;60.46;99600.94;103137;1317;62009;-88
2023/07/28 04:17:48;;;;;;;;;;;;;;;17.25;60.44;99599.27;103033;1320;74029;-88
2023/07/28 04:21:14;;;;;;;;;;;;;;;17.25;60.48;99598.05;102989;1317;69202;-88
2023/07/28 04:24:51;;;;;;;;;;;;;;;;;;;;;
2023/07/28 04:28:19;;;;;;;;;;;;;;;;;;;;;
2023/07/28 04:31:46;;;;;;;;;;;;;;;;;;;;;
2023/07/28 04:35:05;;;;;;;;;;;;;;;17.29;60.84;99591.54;103961;1308;74100;-88
2023/07/28 04:38:28;;;;;;;;;;;;;;;17.31;60.89;99581.84;104098;1311;68082;-87
2023/07/28 04:41:35;;;;;;;;;;;;;;;17.32;61.00;99571.69;103999;1306;71247;-87
2023/07/28 04:45:01;;;;;;;;;;;;;;;17.31;60.98;99563.50;104426;1299;61063;-88
2023/07/28 04:48:15;;;;;;;;;;;;;;;17.37;61.06;99565.98;104277;1302;60138;-88
2023/07/28 04:51:41;;;;;;;;;;;;;;;17.43;61.09;99574.80;104343;1303;74114;-88
2023/07/28 04:55:07;;;;;;;;;;;;;;;17.47;61.20;99568.67;104280;1302;67221;-88
2023/07/28 04:58:33;;;;;;;;;;;;;;;17.50;61.19;99576.14;104301;1308;73761;-87
2023/07/28 05:01:59;;;;;;;;;;;;;;;17.52;61.20;99585.43;104299;1303;60429;-88
2023/07/28 05:05:27;;;;;;;;;;;;;;;17.53;61.23;99587.97;104348;1308;61915;-88
2023/07/28 05:08:54;;;;;;;;;;;;;;;17.52;61.44;99592.06;104311;1304;76901;-89
2023/07/28 05:11:57;;;;;;;;;;;;;;;17.52;61.45;99591.48;104325;1303;67399;-89
2023/07/28 05:15:23;;;;;;;;;;;;;;;17.56;61.67;99585.88;104259;1303;71329;-89
2023/07/28 05:18:33;;;;;;;;;;;;;;;17.59;61.71;99579.10;104301;1308;59932;-88
2023/07/28 05:21:59;;;;;;;;;;;;;;;17.64;61.94;99574.77;104545;1303;62296;-88
2023/07/28 05:25:07;;;;;;;;;;;;;;;17.65;61.77;99578.02;104516;1300;75244;-88
2023/07/28 05:28:32;;;;;;;;;;;;;;;17.68;61.79;99571.00;104486;1303;68164;-88
2023/07/28 05:31:57;;;;;;;;;;;;;;;17.71;61.78;99567.69;104506;1301;73528;-89
2023/07/28 05:35:23;;;;;;;;;;;;;;;17.74;61.96;99554.45;104515;1300;62165;-88
2023/07/28 05:38:49;;;;;;;;;;;;;;;17.76;61.99;99535.27;104490;1299;61949;-88
2023/07/28 05:42:15;;;;;;;;;;;;;;;17.79;62.00;99531.31;104467;1300;75195;-88
2023/07/28 05:45:41;;;;;;;;;;;;;;;17.80;62.16;99529.63;104536;1301;68416;-88
2023/07/28 05:49:07;;;;;;;;;;;;;;;17.84;62.26;99549.45;104526;1300;71491;-88
2023/07/28 05:52:33;;;;;;;;;;;;;;;17.87;62.36;99564.80;104589;1299;60450;-88
2023/07/28 05:55:53;;;;;;;;;;;;;;;17.90;62.26;99563.05;104543;1302;61990;-88
2023/07/28 05:59:07;;;;;;;;;;;;;;;17.93;62.43;99561.27;104559;1300;74711;-88
2023/07/28 06:02:33;;;;;;;;;;;;;;;17.94;62.43;99563.68;104556;1300;67271;-88
2023/07/28 06:05:58;;;;;;;;;;;;;;;17.98;62.55;99562.19;104620;1300;71162;-88
2023/07/28 06:09:04;;;;;;;;;;;;;;;17.99;62.60;99560.89;104550;1304;62099;-88
2023/07/28 06:12:30;;;;;;;;;;;;;;;18.02;62.58;99563.14;104518;1299;60505;-88
2023/07/28 06:15:58;;;;;;;;;;;;;;;18.05;62.66;99563.11;104594;1301;75061;-87
2023/07/28 06:19:23;;;;;;;;;;;;;;;18.10;62.82;99565.77;104559;1301;67297;-87
2023/07/28 06:22:48;;;;;;;;;;;;;;;18.19;62.77;99568.31;104576;1300;71388;-88
2023/07/28 06:26:13;;;;;;;;;;;;;;;18.24;62.76;99567.31;104614;1300;62133;-88
2023/07/28 06:29:01;;;;;;;;;;;;;;;18.29;62.92;99565.23;104469;1304;62056;-86
2023/07/28 06:31:47;;;;;;;;;;;;;;;18.34;62.96;99563.10;104530;1300;75364;-87
2023/07/28 06:34:51;;;;;;;;;;;;;;;18.42;63.03;99559.85;104468;1301;68168;-88
2023/07/28 06:37:58;;;;;;;;;;;;;;;18.48;63.16;99555.42;104598;1301;71646;-89
2023/07/28 06:41:04;;;;;;;;;;;;;;;18.55;63.15;99551.96;104482;1300;60134;-89
2023/07/28 06:44:30;;;;;;;;;;;;;;;18.73;63.45;99554.48;104543;1301;61960;-89
2023/07/28 06:47:56;;;;;;;;;;;;;;;18.85;63.42;99555.43;104554;1301;75285;-89
2023/07/28 06:51:24;;;;;;;;;;;;;;;18.90;63.37;99560.34;104549;1300;67336;-89
2023/07/28 06:54:01;;;;;;;;;;;;;;;18.93;63.37;99567.77;105392;1295;72658;-88
2023/07/28 06:59:51;;;;;;;;;;;;;;;19.00;63.33;99556.67;105484;1291;60049;-86
2023/07/28 07:02:57;;;;;;;;;;;;;;;19.08;63.38;99555.58;105293;1292;76076;-89
2023/07/28 07:05:59;;;;;;;;;;;;;;;19.11;63.40;99557.29;105366;1291;67230;-85
2023/07/28 07:09:25;;;;;;;;;;;;;;;19.10;63.15;99551.41;100964;1294;72400;-89
2023/07/28 07:12:51;;;;;;;;;;;;;;;19.08;63.24;99553.99;104961;1296;62014;-86
2023/07/28 07:15:57;;;;;;;;;;;;;;;19.08;63.47;99554.55;105007;1294;74193;-87
2023/07/28 07:19:24;;;;;;;;;;;;;;;19.09;63.52;99564.05;104946;1294;67599;-87
2023/07/28 07:22:23;;;;;;;;;;;;;;;19.12;63.60;99568.25;105434;1290;71989;-88
2023/07/28 07:25:24;;;;;;;;;;;;;;;19.18;63.62;99571.55;105361;1291;62170;-87
2023/07/28 07:28:35;;;;;;;;;;;;;;;19.25;63.82;99571.04;105307;1291;62653;-87
2023/07/28 07:32:00;;;;;;;;;;;;;;;19.30;63.67;99573.33;105467;1291;76152;-87
2023/07/28 07:35:27;;;;;;;;;;;;;;;19.31;64.02;99575.34;105289;1291;68079;-89
2023/07/28 07:38:53;;;;;;;;;;;;;;;19.35;64.01;99573.48;105423;1292;71428;-90
2023/07/28 07:42:20;;;;;;;;;;;;;;;19.40;63.97;99575.40;105214;1291;61938;-87
2023/07/28 07:48:24;;;;;;;;;;;;;;;19.42;64.10;99577.52;105569;1289;74040;-88
2023/07/28 07:51:50;;;;;;;;;;;;;;;19.44;64.24;99575.63;105363;1291;66304;-88
2023/07/28 07:55:16;;;;;;;;;;;;;;;19.45;64.28;99575.88;105343;1292;74027;-89
2023/07/28 08:01:19;;;;;;;;;;;;;;;19.63;64.55;99573.86;105451;1294;61989;-90
2023/07/28 08:04:46;;;;;;;;;;;;;;;19.69;64.63;99573.94;104755;1297;73332;-88
2023/07/28 08:08:19;;;;;;;;;;;;;;;19.67;64.29;99575.95;104607;1297;68470;-90
2023/07/28 08:11:14;;;;;;;;;;;;;;;19.67;64.73;99580.55;105367;1290;71144;-88
2023/07/28 08:14:21;;;;;;;;;;;;;;;19.71;64.57;99585.35;104636;1297;60336;-86
2023/07/28 08:17:43;;;;;;;;;;;;;;;19.78;64.47;99585.16;104455;1300;61091;-87
2023/07/28 08:21:05;;;;;;;;;;;;;;;19.86;64.59;99589.66;105301;1300;75164;-86
2023/07/28 08:24:31;;;;;;;;;;;;;;;19.87;64.48;99591.35;104413;1300;67256;-87
2023/07/28 08:27:57;;;;;;;;;;;;;;;19.91;64.75;99585.28;104161;1303;71376;-86
2023/07/28 08:31:23;;;;;;;;;;;;;;;20.04;64.99;99585.42;104497;1300;60546;-90
2023/07/28 08:34:30;;;;;;;;;;;;;;;20.28;64.71;99587.52;104344;1300;60505;-86
2023/07/28 08:37:56;;;;;;;;;;;;;;;20.45;64.89;99588.34;104398;1300;78181;-86
2023/07/28 08:41:22;;;;;;;;;;;;;;;20.56;64.92;99590.70;104377;1303;67577;-87
2023/07/28 08:44:54;;;;;;;;;;;;;;;20.59;64.92;99590.16;104400;1300;73785;-87
2023/07/28 08:48:20;;;;;;;;;;;;;;;20.58;64.76;99588.85;104534;1297;62377;-87
2023/07/28 08:51:46;;;;;;;;;;;;;;;21.28;65.56;99587.33;105008;1291;60448;-87
2023/07/28 08:54:52;;;;;;;;;;;;;;;22.49;65.17;99588.40;105166;1291;75244;-86
2023/07/28 08:58:21;;;;;;;;;;;;;;;25.23;63.79;99582.08;105173;1291;67222;-88
2023/07/28 09:01:31;;;;;;;;;;;;;;;26.12;62.64;99585.08;105327;1292;71673;-87
2023/07/28 09:04:57;;;;;;;;;;;;;;;25.95;62.69;99586.16;105222;1291;62073;-87
2023/07/28 09:08:20;;;;;;;;;;;;;;;25.48;62.86;99581.80;105209;1291;60219;-87
2023/07/28 09:11:46;;;;;;;;;;;;;;;24.94;62.97;99582.87;105157;1291;77186;-87
2023/07/28 09:15:16;;;;;;;;;;;;;;;24.46;63.11;99585.72;105131;1291;68646;-86
2023/07/28 09:18:41;;;;;;;;;;;;;;;24.17;63.16;99588.64;105152;1291;73336;-86
2023/07/28 09:22:07;;;;;;;;;;;;;;;23.86;63.07;99593.35;105193;1291;62458;-87
2023/07/28 09:25:34;;;;;;;;;;;;;;;23.57;63.20;99596.89;105709;1291;61945;-86
2023/07/28 09:29:00;;;;;;;;;;;;;;;23.52;63.27;99592.61;104768;1296;74864;-88
2023/07/28 09:32:28;;;;;;;;;;;;;;;23.52;63.19;99591.52;104364;1296;66453;-92
2023/07/28 09:35:53;;;;;;;;;;;;;;;23.41;62.99;99585.65;104306;1297;71231;-87
2023/07/28 09:42:49;;;;;;;;;;;;;;;23.17;63.11;99583.11;103925;1306;62113;-88
2023/07/28 09:46:11;;;;;;;;;;;;;;;23.00;62.77;99591.02;104300;1306;75304;-88
2023/07/28 09:49:40;;;;;;;;;;;;;;;22.76;62.98;99588.36;104234;1304;67217;-88
2023/07/28 09:53:07;;;;;;;;;;;;;;;22.71;63.11;99593.68;104320;1303;72281;-88
2023/07/28 09:56:33;;;;;;;;;;;;;;;22.73;63.04;99586.77;104297;1303;61170;-87
2023/07/28 10:00:00;;;;;;;;;;;;;;;22.74;63.18;99581.98;104259;1306;60594;-87
2023/07/28 10:03:26;;;;;;;;;;;;;;;22.82;63.29;99580.48;104298;1305;74191;-87
2023/07/28 10:06:56;;;;;;;;;;;;;;;23.00;63.28;99592.83;104563;1303;67599;-88
2023/07/28 10:10:02;;;;;;;;;;;;;;;23.16;63.19;99592.14;104748;1298;70913;-87
2023/07/28 10:13:28;;;;;;;;;;;;;;;23.34;63.05;99593.48;104641;1300;62275;-87
2023/07/28 10:16:38;;;;;;;;;;;;;;;23.43;62.98;99595.98;104685;1300;61934;-86
2023/07/28 10:20:08;;;;;;;;;;;;;;;23.48;62.99;99589.09;105856;1291;74127;-86
2023/07/28 10:23:14;;;;;;;;;;;;;;;23.43;62.84;99590.31;105126;1296;67811;-85
2023/07/28 10:26:22;;;;;;;;;;;;;;;23.38;62.88;99588.88;105100;1292;71227;-86
2023/07/28 10:29:38;;;;;;;;;;;;;;;23.48;63.09;99584.50;105136;1291;60117;-87
2023/07/28 10:41:00;;;;;;;;;;;;;;;23.21;62.62;99598.98;87653;1297;72351;-87
2023/07/28 10:47:07;;;;;;;;;;;;;;;22.59;63.04;99614.16;104976;1288;60836;-89
2023/07/28 10:50:34;;;;;;;;;;;;;;;22.34;63.36;99614.41;104772;1291;76794;-88
2023/07/28 10:54:03;;;;;;;;;;;;;;;22.21;63.46;99623.05;104843;1291;69993;-89
2023/07/28 10:59:35;;;;;;;;;;;;;;;22.54;63.77;99621.22;104873;1292;76750;-89
2023/07/28 11:13:00;;;;;;;;;;;;;;;22.90;63.87;99638.13;104922;1290;61990;-87
2023/07/28 11:16:27;;;;;;;;;;;;;;;22.87;63.53;99639.45;104722;1291;60237;-87
2023/07/28 11:19:54;;;;;;;;;;;;;;;22.82;63.64;99643.09;104213;1297;76776;-88
2023/07/28 11:23:20;;;;;;;;;;;;;;;22.84;63.58;99636.89;104437;1297;67377;-87
2023/07/28 11:26:47;;;;;;;;;;;;;;;22.85;63.68;99635.42;104438;1297;72081;-88
2023/07/28 11:30:13;;;;;;;;;;;;;;;22.95;64.05;99633.89;104633;1297;59683;-88
2023/07/28 11:33:39;;;;;;;;;;;;;;;23.11;63.63;99636.71;104382;1301;62058;-88
2023/07/28 11:37:08;;;;;;;;;;;;;;;23.16;63.70;99634.35;104561;1298;74100;-87
2023/07/28 11:40:32;;;;;;;;;;;;;;;23.35;64.07;99640.87;104560;1297;68274;-89
2023/07/28 11:43:59;;;;;;;;;;;;;;;23.40;63.62;99641.08;104362;1297;71190;-88
2023/07/28 11:50:10;;;;;;;;;;;;;;;23.52;63.56;99632.73;105018;1289;61936;-88
2023/07/28 11:53:37;;;;;;;;;;;;;;;23.50;63.52;99637.42;104507;1295;74958;-86
2023/07/28 11:57:03;;;;;;;;;;;;;;;23.50;63.53;99643.95;104648;1300;67206;-88
2023/07/28 12:00:29;;;;;;;;;;;;;;;23.49;63.34;99643.38;103890;1307;72865;-87
2023/07/28 12:03:56;;;;;;;;;;;;;;;23.43;63.38;99647.14;104020;1303;62024;-86
2023/07/28 12:07:06;;;;;;;;;;;;;;;23.50;63.42;99639.88;104230;1303;62075;-84
2023/07/28 12:10:13;;;;;;;;;;;;;;;23.58;63.31;99644.89;104225;1303;77399;-86
2023/07/28 12:13:38;;;;;;;;;;;;;;;23.61;63.28;99651.86;104188;1303;67143;-88
2023/07/28 12:17:05;;;;;;;;;;;;;;;23.58;63.09;99656.63;104043;1303;71491;-87
2023/07/28 12:20:32;;;;;;;;;;;;;;;23.49;63.24;99654.61;104383;1309;59763;-88
2023/07/28 12:23:58;;;;;;;;;;;;;;;23.42;63.25;99666.05;103815;1308;62076;-88
2023/07/28 12:27:26;;;;;;;;;;;;;;;23.35;63.29;99676.73;103925;1309;74103;-88
2023/07/28 12:30:52;;;;;;;;;;;;;;;23.28;63.27;99680.50;104010;1305;67265;-88
2023/07/28 12:34:17;;;;;;;;;;;;;;;23.20;63.40;99687.27;104040;1306;71255;-88
2023/07/28 12:44:13;;;;;;;;;;;;;;;23.04;63.38;99696.89;84110;1310;74124;-94
2023/07/28 12:47:39;;;;;;;;;;;;;;;23.17;63.50;99693.55;105426;1292;68568;-89
2023/07/28 12:51:05;;;;;;;;;;;;;;;23.30;63.49;99688.95;105279;1294;71226;-88
2023/07/28 12:59:47;;;;;;;;;;;;;;;23.40;63.19;99693.55;105414;1291;75313;-88
2023/07/28 13:03:14;;;;;;;;;;;;;;;23.46;63.47;99713.43;105281;1290;68277;-88
2023/07/28 13:06:42;;;;;;;;;;;;;;;23.40;63.38;99708.48;105403;1291;71421;-89
2023/07/28 13:20:04;;;;;;;;;;;;;;;23.23;63.71;99719.04;105368;1292;72418;-89
2023/07/28 13:26:29;;;;;;;;;;;;;;;;;;;;;
2023/07/28 13:29:42;;;;;;;;;;;;;;;23.33;63.80;99735.10;105450;1292;74817;-88
2023/07/28 13:35:14;;;;;;;;;;;;;;;23.33;63.64;99726.52;83990;1313;71356;-92
2023/07/28 13:38:01;;;;;;;;;;;;;;;23.35;63.65;99721.07;105013;1294;61834;-85
2023/07/28 13:40:49;;;;;;;;;;;;;;;23.33;63.67;99725.92;105788;1296;59797;-86
2023/07/28 13:43:37;;;;;;;;;;;;;;;23.29;63.64;99723.71;105645;1293;75336;-85
2023/07/28 13:46:28;;;;;;;;;;;;;;;23.22;63.58;99724.44;105836;1292;68510;-85
2023/07/28 13:49:15;;;;;;;;;;;;;;;23.20;63.69;99727.92;105158;1294;73173;-85
2023/07/28 13:52:09;;;;;;;;;;;;;;;23.20;63.71;99729.34;105053;1294;63133;-85
2023/07/28 13:54:58;;;;;;;;;;;;;;;23.18;63.62;99734.29;105120;1294;60404;-85
2023/07/28 13:57:45;;;;;;;;;;;;;;;23.11;63.59;99733.27;105407;1293;74304;-85
2023/07/28 14:00:31;;;;;;;;;;;;;;;23.04;63.61;99737.67;104969;1297;67333;-85
2023/07/28 14:03:17;;;;;;;;;;;;;;;22.96;63.46;99735.16;104982;1294;73494;-85
2023/07/28 14:06:03;;;;;;;;;;;;;;;22.91;63.44;99730.35;104830;1294;62080;-85
2023/07/28 14:08:49;;;;;;;;;;;;;;;22.88;63.55;99739.33;104906;1293;61952;-85
2023/07/28 14:11:35;;;;;;;;;;;;;;;22.89;63.62;99748.42;104902;1292;75420;-85
2023/07/28 14:14:21;;;;;;;;;;;;;;;22.92;63.64;99751.17;104970;1294;66630;-85
2023/07/28 14:17:07;;;;;;;;;;;;;;;22.92;63.56;99754.01;97604;1293;10002657;-85
2023/07/28 14:19:55;;;;;;;;;;;;;;;22.93;63.53;99758.27;104960;1294;60253;-85
2023/07/28 14:22:42;;;;;;;;;;;;;;;22.95;63.51;99759.17;105030;1293;74095;-85
2023/07/28 14:25:30;;;;;;;;;;;;;;;23.01;63.54;99765.48;105303;1294;66554;-85
2023/07/28 14:28:17;;;;;;;;;;;;;;;23.13;63.70;99765.29;104972;1293;71723;-85
2023/07/28 14:31:04;;;;;;;;;;;;;;;23.25;63.70;99768.70;104942;1293;62071;-85
2023/07/28 14:33:56;;;;;;;;;;;;;;;23.31;63.60;99773.13;105132;1294;62178;-84
2023/07/28 14:36:47;;;;;;;;;;;;;;;23.32;63.42;99777.40;104975;1292;75514;-85
2023/07/28 14:39:33;;;;;;;;;;;;;;;23.29;63.50;99784.67;104933;1294;68288;-84
2023/07/28 14:42:39;;;;;;;;;;;;;;;23.22;63.79;99792.80;104930;1294;72943;-87
2023/07/28 14:46:05;;;;;;;;;;;;;;;23.11;63.89;99798.47;105019;1294;62007;-87
2023/07/28 14:49:31;;;;;;;;;;;;;;;23.03;64.17;99798.03;105054;1294;61959;-87
2023/07/28 14:52:37;;;;;;;;;;;;;;;22.95;63.93;99799.92;105013;1294;75007;-86
2023/07/28 14:56:03;;;;;;;;;;;;;;;22.81;64.19;99806.16;105067;1294;68643;-88
2023/07/28 14:59:30;;;;;;;;;;;;;;;22.70;64.05;99812.10;105061;1292;71259;-88
2023/07/28 15:02:56;;;;;;;;;;;;;;;22.60;64.36;99818.41;105078;1297;60064;-87
2023/07/28 15:06:23;;;;;;;;;;;;;;;22.52;64.49;99820.23;105062;1293;61989;-87
2023/07/28 15:09:49;;;;;;;;;;;;;;;22.54;64.55;99822.19;105037;1294;76840;-87
2023/07/28 15:13:15;;;;;;;;;;;;;;;22.52;64.73;99826.36;104923;1294;67295;-88
2023/07/28 15:16:42;;;;;;;;;;;;;;;22.51;64.65;99824.33;105043;1294;74016;-87
2023/07/28 15:20:08;;;;;;;;;;;;;;;22.50;64.69;99831.46;104952;1294;62134;-87
2023/07/28 15:23:35;;;;;;;;;;;;;;;22.51;64.82;99827.53;104539;1299;59402;-87
2023/07/28 15:27:02;;;;;;;;;;;;;;;22.47;64.87;99831.84;104092;1306;75422;-87
2023/07/28 15:30:29;;;;;;;;;;;;;;;22.46;65.02;99829.61;103459;1312;68760;-87
2023/07/28 15:33:55;;;;;;;;;;;;;;;22.52;65.11;99832.56;103445;1312;71671;-87
2023/07/28 15:37:21;;;;;;;;;;;;;;;22.59;65.20;99829.19;103476;1312;61931;-87
2023/07/28 15:40:48;;;;;;;;;;;;;;;22.62;65.17;99826.54;103412;1312;61980;-87
2023/07/28 15:44:14;;;;;;;;;;;;;;;22.57;65.21;99826.67;103442;1312;74887;-87
2023/07/28 15:47:41;;;;;;;;;;;;;;;22.51;65.28;99829.42;103398;1312;68549;-87
2023/07/28 15:51:07;;;;;;;;;;;;;;;22.50;65.22;99831.14;103432;1311;71218;-87
2023/07/28 15:54:34;;;;;;;;;;;;;;;22.43;65.39;99825.16;103475;1311;60936;-87
2023/07/28 15:58:00;;;;;;;;;;;;;;;22.40;65.44;99827.84;103442;1311;60963;-87
2023/07/28 16:01:27;;;;;;;;;;;;;;;22.39;65.51;99827.40;103802;1308;74103;-86
2023/07/28 16:04:53;;;;;;;;;;;;;;;22.37;65.49;99833.83;104413;1300;68582;-87
2023/07/28 16:08:20;;;;;;;;;;;;;;;22.39;65.52;99833.17;104910;1294;74175;-87
2023/07/28 16:11:46;;;;;;;;;;;;;;;22.43;65.65;99839.02;104967;1294;60317;-87
2023/07/28 16:15:12;;;;;;;;;;;;;;;22.46;65.50;99845.78;105015;1293;62078;-87
2023/07/28 16:18:39;;;;;;;;;;;;;;;22.48;65.73;99852.33;104991;1294;75390;-88
2023/07/28 16:22:05;;;;;;;;;;;;;;;22.51;65.69;99851.56;104975;1293;68562;-87
2023/07/28 16:25:32;;;;;;;;;;;;;;;22.51;65.55;99849.64;104926;1294;74504;-87
2023/07/28 16:28:58;;;;;;;;;;;;;;;22.51;65.54;99848.98;104896;1292;62162;-88
2023/07/28 16:32:24;;;;;;;;;;;;;;;22.45;65.54;99852.53;104925;1293;60090;-87
2023/07/28 16:35:51;;;;;;;;;;;;;;;22.41;65.52;99865.54;104940;1294;74418;-87
2023/07/28 16:39:17;;;;;;;;;;;;;;;22.36;65.45;99871.91;104956;1294;67254;-86
2023/07/28 16:42:43;;;;;;;;;;;;;;;22.33;65.59;99876.70;104993;1297;71985;-87
2023/07/28 16:46:11;;;;;;;;;;;;;;;22.32;65.85;99884.90;105061;1294;62201;-87
2023/07/28 16:49:36;;;;;;;;;;;;;;;22.24;65.86;99880.90;105028;1293;60114;-86
2023/07/28 16:53:02;;;;;;;;;;;;;;;22.19;65.85;99883.55;104981;1294;73163;-86
2023/07/28 16:56:28;;;;;;;;;;;;;;;22.14;65.86;99889.20;105031;1294;67113;-86
2023/07/28 16:59:54;;;;;;;;;;;;;;;22.07;65.92;99897.62;105048;1293;71869;-86
2023/07/28 17:03:20;;;;;;;;;;;;;;;22.01;66.09;99900.21;104999;1297;61920;-86
2023/07/28 17:06:46;;;;;;;;;;;;;;;21.91;65.86;99903.92;105075;1294;61828;-86
2023/07/28 17:10:12;;;;;;;;;;;;;;;21.84;65.98;99907.11;105050;1293;74528;-86
2023/07/28 17:13:39;;;;;;;;;;;;;;;21.79;66.09;99913.05;105035;1297;69163;-87
2023/07/28 17:17:05;;;;;;;;;;;;;;;21.77;66.16;99917.55;105042;1294;75265;-86
2023/07/28 17:20:32;;;;;;;;;;;;;;;21.80;66.30;99922.63;105054;1293;60310;-86
2023/07/28 17:23:58;;;;;;;;;;;;;;;21.82;66.21;99923.03;105084;1293;61991;-86
2023/07/28 17:27:24;;;;;;;;;;;;;;;21.84;66.32;99924.80;105041;1292;79417;-87
2023/07/28 17:30:51;;;;;;;;;;;;;;;21.83;66.33;99924.70;104977;1297;67900;-87
2023/07/28 17:34:22;;;;;;;;;;;;;;;21.78;66.31;99927.20;104923;1297;71207;-87
2023/07/28 17:37:49;;;;;;;;;;;;;;;21.72;66.27;99934.08;104444;1300;62056;-87
2023/07/28 17:41:15;;;;;;;;;;;;;;;21.66;66.49;99932.83;104403;1302;61923;-87
2023/07/28 17:44:42;;;;;;;;;;;;;;;21.59;66.49;99936.95;104473;1300;77275;-86
2023/07/28 17:48:08;;;;;;;;;;;;;;;21.55;66.50;99941.64;104447;1303;67547;-87
2023/07/28 17:51:35;;;;;;;;;;;;;;;21.50;66.52;99949.22;104466;1303;71292;-87
2023/07/28 17:55:01;;;;;;;;;;;;;;;21.45;66.64;99951.84;104328;1302;62065;-87
2023/07/28 17:58:28;;;;;;;;;;;;;;;21.42;66.68;99957.73;104349;1291;63590;-87
2023/07/28 18:01:54;;;;;;;;;;;;;;;21.39;66.74;99959.08;105532;1292;75440;-87
2023/07/28 18:05:20;;;;;;;;;;;;;;;21.35;66.68;99966.07;105317;1292;67566;-86
2023/07/28 18:08:46;;;;;;;;;;;;;;;21.29;66.72;99970.04;105287;1292;75132;-86
2023/07/28 18:12:12;;;;;;;;;;;;;;;21.23;66.68;99972.41;105255;1289;62076;-86
2023/07/28 18:15:39;;;;;;;;;;;;;;;21.16;66.65;99968.64;105254;1294;59615;-87